Main page
METAR-TAF:

METAR-TAF

Airports :

Angers – Loire Airport

Angers, France

latitude: 47-33-37N, longitude: 000-18-44W, elevation: 59 m

Current weather observation

The report was made 29 minutes ago, at 00:00 UTC
Calm wind
Temperature 2°C
Humidity 93%
Pressure 1027 hPa
Visibility: 0900 m
Few clouds at a height of 300 ft
fog

METAR: LFJR 190000Z AUTO 00000KT 0900 R26/1200D FG FEW003 02/01 Q1027

Time: 01:29 (00:29 UTC)

Forecast

The report was made 10 hours and 29 minutes ago, at 14:00 UTC
Forecast valid from 18 at 15 UTC to 18 at 24 UTC
Wind 6 kt from the Northwest
Visibility 10 km or more
Scattered clouds at a height of 2000 ft, Towering cumulus.
Temporary
from 18 at 15 UTC to 18 at 21 UTC
Visibility: 4000 m
Few clouds at a height of 1500 ft, Cumulonimbus.
Broken clouds at a height of 2000 ft, Towering cumulus.
rain showers
Becoming
from 18 at 21 UTC to 18 at 23 UTC
Wind 3 kt from variable directions

TAF: LFJR 181400Z 1815/1824 32006KT 9999 SCT020TCU TEMPO 1815/1821 4000 SHRA FEW015CB BKN020TCU BECMG 1821/1823 VRB03KT

Weather observations and forecasts of more than 4000 airports (METAR and TAF reports).

The available stations are represented by yellow and red dots on the map.

Hover mouse over dot to see the name of the station.

Then click to see weather observations and forecasts.

To change the map : click on the green buttons with a black cross to zoom in, on the green button with a dash to zoom out, or on the green arrows for adjacent maps.


METAR-TAF: